This is the latest recevied weather packets stored in our database for station/object HOTSPR-3. If no packets are shown the sender has not sent any weather packets the latest 1 day(s).
| Time | Temp. | Humidity | Pressure | Rain* | Wind** | Luminosity | Snow |
|---|---|---|---|---|---|---|---|
| 1777979971 | 18.89° C | 88% | 1003.9 hPa | 0 mm | 2.24 m/s, 188° | - | - |
| 1777979370 | 18.89° C | 87% | 1003.9 hPa | 0 mm | 2.24 m/s, 182° | - | - |
| 1777978766 | 18.89° C | 86% | 1003.7 hPa | 0 mm | 1.79 m/s, 184° | - | - |
| 1777978466 | 18.89° C | 86% | 1003.6 hPa | 0 mm | 2.24 m/s, 182° | - | - |
| 1777977866 | 18.89° C | 85% | 1003.6 hPa | 0 mm | 3.58 m/s, 202° | - | - |
| 1777977566 | 18.89° C | 85% | 1003.7 hPa | 0 mm | 1.79 m/s, 202° | - | - |
| 1777977265 | 18.89° C | 84% | 1003.6 hPa | 0 mm | 3.13 m/s, 180° | - | - |
| 1777976965 | 18.89° C | 84% | 1003.6 hPa | 0 mm | 1.34 m/s, 184° | - | - |
| 1777976365 | 18.89° C | 83% | 1003.7 hPa | 0 mm | 1.79 m/s, 177° | - | - |
| 1777976065 | 18.89° C | 83% | 1003.8 hPa | 0 mm | 1.34 m/s, 176° | - | - |
| 1777975764 | 18.89° C | 82% | 1003.7 hPa | 0 mm | 0.89 m/s, 206° | - | - |
| 1777975464 | 18.89° C | 82% | 1003.9 hPa | 0 mm | 1.79 m/s, 168° | - | - |
| 1777975164 | 18.89° C | 82% | 1003.8 hPa | 0 mm | 0.45 m/s, 337° | - | - |
| 1777974864 | 18.89° C | 82% | 1003.9 hPa | 0 mm | 1.79 m/s, 180° | - | - |
| 1777973063 | 18.89° C | 79% | 1003.8 hPa | 0 mm | 2.24 m/s, 170° | - | - |
| 1777972462 | 19.44° C | 78% | 1003.8 hPa | 0 mm | 2.24 m/s, 172° | - | - |
| 1777971562 | 19.44° C | 77% | 1004.1 hPa | 0 mm | 2.24 m/s, 180° | - | - |
| 1777971262 | 19.44° C | 77% | 1004.1 hPa | 0 mm | 2.24 m/s, 184° | - | - |
| 1777970961 | 19.44° C | 77% | 1004.2 hPa | 0 mm | 1.79 m/s, 182° | - | - |
| 1777970661 | 19.44° C | 76% | 1004.2 hPa | 0 mm | 1.79 m/s, 185° | - | - |
| 1777970361 | 19.44° C | 76% | 1004.2 hPa | 0 mm | 1.34 m/s, 180° | - | - |
| 1777970061 | 19.44° C | 75% | 1004.3 hPa | 0 mm | 1.79 m/s, 180° | - | - |
* Rain since midnight (hover to see other rain measurements)
** Current wind speed in m/s (hover to see current wind gust speed)